createdAt,value
2023-02-04T04:02:06.865Z,999.90
2023-02-04T04:05:16.622Z,999.90
2023-02-04T04:08:26.577Z,999.90
2023-02-04T04:11:36.187Z,999.90
2023-02-04T04:14:45.868Z,999.90
2023-02-04T04:17:56.769Z,999.90
2023-02-04T04:21:06.609Z,999.90
2023-02-04T04:24:16.208Z,999.90
2023-02-04T04:27:25.977Z,999.90
2023-02-04T04:30:35.565Z,999.90
2023-02-04T04:33:46.464Z,999.90
2023-02-04T04:36:56.072Z,999.90
2023-02-04T04:40:06.859Z,999.90
2023-02-04T04:43:16.439Z,999.90
2023-02-04T04:46:26.091Z,999.90
2023-02-04T04:49:37.014Z,999.90
2023-02-04T04:52:46.672Z,999.90
2023-02-04T04:55:56.286Z,999.90
2023-02-04T04:59:06.025Z,999.90
2023-02-04T05:02:15.543Z,999.90
2023-02-04T05:05:26.565Z,999.90
2023-02-04T05:08:36.675Z,999.90
2023-02-04T05:11:47.805Z,999.90
2023-02-04T05:14:57.537Z,999.90
2023-02-04T05:18:07.346Z,999.90
2023-02-04T05:21:18.161Z,999.90
2023-02-04T05:24:28.010Z,999.90
2023-02-04T05:27:37.671Z,999.90
2023-02-04T05:30:47.386Z,999.90
2023-02-04T05:33:57.084Z,999.90
2023-02-04T05:37:07.986Z,999.90
2023-02-04T05:40:17.792Z,999.90
2023-02-04T05:43:27.770Z,999.90
2023-02-04T05:46:38.428Z,999.90
2023-02-04T05:49:48.038Z,999.90
2023-02-04T05:52:58.931Z,999.90
2023-02-04T05:56:08.706Z,999.90
2023-02-04T05:59:18.540Z,999.90
2023-02-04T06:02:31.507Z,999.90
2023-02-04T06:05:41.364Z,999.90
2023-02-04T06:08:52.371Z,999.90
2023-02-04T06:12:02.181Z,999.90
2023-02-04T06:15:12.916Z,999.90
2023-02-04T06:18:22.589Z,999.90
2023-02-04T06:21:32.306Z,999.90
2023-02-04T06:24:43.090Z,999.90
2023-02-04T06:27:52.832Z,999.90
2023-02-04T06:31:02.619Z,999.90
2023-02-04T06:34:12.299Z,999.90
2023-02-04T06:37:24.253Z,999.90
2023-02-04T06:40:35.333Z,999.90
2023-02-04T06:43:44.894Z,999.90
2023-02-04T06:46:54.908Z,999.90
2023-02-04T06:50:04.727Z,999.90
2023-02-04T06:53:14.348Z,999.90
2023-02-04T06:56:26.842Z,999.90
2023-02-04T06:59:37.485Z,999.90
2023-02-04T07:02:47.103Z,999.90
2023-02-04T07:05:56.800Z,999.90
2023-02-04T07:09:06.347Z,999.90
2023-02-04T07:12:17.343Z,999.90
2023-02-04T07:15:27.028Z,999.90
2023-02-04T07:18:37.193Z,999.90
2023-02-04T07:21:46.764Z,999.90
2023-02-04T07:24:56.472Z,999.90
2023-02-04T07:28:07.512Z,999.90
2023-02-04T07:31:17.292Z,999.90
2023-02-04T07:34:26.890Z,999.90
2023-02-04T07:37:36.503Z,999.90
2023-02-04T07:40:46.084Z,999.90
2023-02-04T07:43:57.231Z,999.90
2023-02-04T07:47:06.844Z,999.90
2023-02-04T07:50:17.313Z,999.90
2023-02-04T07:53:26.942Z,999.90
2023-02-04T07:56:36.684Z,999.90
2023-02-04T07:59:47.569Z,999.90
2023-02-04T08:02:57.208Z,999.90
2023-02-04T08:06:07.007Z,999.90
2023-02-04T08:09:16.730Z,999.90
2023-02-04T08:12:26.280Z,999.90
2023-02-04T08:15:37.453Z,999.90
2023-02-04T08:18:47.006Z,999.90
2023-02-04T08:21:56.833Z,999.90
2023-02-04T08:25:06.736Z,999.90
2023-02-04T08:28:16.485Z,999.90
2023-02-04T08:31:27.444Z,999.90
2023-02-04T08:34:37.174Z,999.90
2023-02-04T08:37:46.740Z,999.90
2023-02-04T08:40:56.332Z,999.90
2023-02-04T08:44:06.358Z,999.90
2023-02-04T08:47:17.356Z,999.90
2023-02-04T08:50:28.717Z,999.90
2023-02-04T08:53:40.653Z,999.90
2023-02-04T08:56:50.236Z,999.90
2023-02-04T08:59:59.905Z,999.90
2023-02-04T09:03:10.798Z,999.90
2023-02-04T09:06:20.583Z,999.90
2023-02-04T09:09:30.255Z,999.90
2023-02-04T09:12:39.876Z,999.90
2023-02-04T09:15:49.450Z,999.90
2023-02-04T09:19:01.780Z,999.90
2023-02-04T09:22:13.157Z,999.90
2023-02-04T09:25:23.123Z,999.90
2023-02-04T09:28:33.010Z,999.90
2023-02-04T09:31:42.762Z,999.90
2023-02-04T09:34:53.655Z,999.90
2023-02-04T09:38:03.482Z,999.90
2023-02-04T09:41:14.310Z,999.90
2023-02-04T09:44:27.488Z,999.90
2023-02-04T09:47:37.498Z,999.90
2023-02-04T09:50:49.369Z,999.90
2023-02-04T09:54:09.731Z,999.90
2023-02-04T09:57:21.410Z,999.90
2023-02-04T10:00:32.852Z,999.90
2023-02-04T10:03:46.691Z,999.90
2023-02-04T10:06:58.823Z,999.90
2023-02-04T10:10:17.058Z,999.90
2023-02-04T10:13:32.246Z,999.90
2023-02-04T10:16:45.036Z,999.90
2023-02-04T10:19:54.690Z,999.90
2023-02-04T10:23:05.622Z,999.90
2023-02-04T10:26:16.458Z,999.90
2023-02-04T10:29:26.521Z,999.90
2023-02-04T10:32:36.179Z,999.90
2023-02-04T10:35:47.634Z,999.90
2023-02-04T10:39:02.211Z,999.90
2023-02-04T10:42:22.495Z,999.90
2023-02-04T10:45:32.956Z,999.90
2023-02-04T10:48:43.263Z,999.90
2023-02-04T10:51:53.820Z,999.90
2023-02-04T10:55:08.207Z,999.90
2023-02-04T10:58:25.647Z,999.90
2023-02-04T11:01:35.506Z,999.90
2023-02-04T11:04:45.081Z,999.90
2023-02-04T11:07:54.697Z,999.90
2023-02-04T11:11:08.460Z,999.90
2023-02-04T11:14:24.988Z,999.90
2023-02-04T11:17:36.135Z,999.90
2023-02-04T11:20:45.729Z,999.90
2023-02-04T11:24:07.449Z,999.90
2023-02-04T11:27:25.187Z,999.90
2023-02-04T11:30:34.903Z,999.90
2023-02-04T11:33:45.028Z,999.90
2023-02-04T11:36:59.240Z,708.53
2023-02-04T11:40:23.399Z,99.30
2023-02-04T11:43:37.397Z,694.27
2023-02-04T11:46:55.353Z,89.70
2023-02-04T11:50:14.181Z,65.93
2023-02-04T11:53:25.813Z,59.13
2023-02-04T11:56:35.357Z,56.03
2023-02-04T11:59:46.332Z,54.07
2023-02-04T12:02:59.070Z,57.37
2023-02-04T12:06:09.068Z,69.07
2023-02-04T12:09:26.134Z,36.03
2023-02-04T12:12:44.500Z,41.90
2023-02-04T12:16:00.680Z,50.67
2023-02-04T12:19:10.405Z,53.13
2023-02-04T12:22:19.996Z,54.80
2023-02-04T12:25:30.438Z,74.03
2023-02-04T12:28:40.308Z,76.73
2023-02-04T12:31:51.423Z,58.07
2023-02-04T12:35:01.047Z,43.40
2023-02-04T12:38:11.180Z,59.03
2023-02-04T12:41:20.805Z,32.23
2023-02-04T12:44:30.460Z,38.87
2023-02-04T12:47:42.417Z,41.53
2023-02-04T12:50:52.081Z,40.17
2023-02-04T12:54:01.741Z,43.33
2023-02-04T12:57:11.858Z,46.63
2023-02-04T13:00:22.276Z,51.13
2023-02-04T13:03:33.620Z,45.43
2023-02-04T13:06:43.227Z,40.43
2023-02-04T13:09:53.307Z,45.97
2023-02-04T13:13:04.670Z,51.77
2023-02-04T13:16:14.565Z,53.60
2023-02-04T13:19:25.517Z,50.00
2023-02-04T13:22:35.185Z,54.90
2023-02-04T13:25:45.115Z,58.40
2023-02-04T13:28:54.825Z,52.93
2023-02-04T13:32:04.583Z,56.80
2023-02-04T13:35:15.707Z,50.67
2023-02-04T13:38:25.887Z,47.63
2023-02-04T13:41:36.265Z,51.33
2023-02-04T13:44:45.980Z,52.87
2023-02-04T13:47:55.633Z,49.97
2023-02-04T13:51:06.611Z,56.70
2023-02-04T13:54:16.390Z,52.27
2023-02-04T13:57:25.982Z,58.20
2023-02-04T14:00:35.817Z,57.33
2023-02-04T14:03:46.497Z,54.40
2023-02-04T14:06:57.779Z,49.97
2023-02-04T14:10:08.575Z,60.10
2023-02-04T14:13:18.667Z,58.20
2023-02-04T14:16:28.434Z,56.03
2023-02-04T14:19:38.157Z,67.80
2023-02-04T14:22:49.076Z,66.93
2023-02-04T14:25:59.045Z,73.33
2023-02-04T14:29:08.827Z,70.37
2023-02-04T14:32:18.477Z,71.20
2023-02-04T14:35:28.516Z,77.03
2023-02-04T14:38:39.688Z,69.27
2023-02-04T14:41:49.383Z,73.77
2023-02-04T14:44:59.546Z,87.53
2023-02-04T14:48:09.616Z,93.40
2023-02-04T14:51:22.328Z,106.37
2023-02-04T14:54:33.401Z,109.23
2023-02-04T14:57:45.606Z,153.53
2023-02-04T15:00:55.504Z,169.73
2023-02-04T15:04:05.529Z,182.60
2023-02-04T15:07:15.095Z,257.87
2023-02-04T15:10:26.118Z,141.30
2023-02-04T15:13:35.933Z,114.63
2023-02-04T15:16:48.780Z,146.97
2023-02-04T15:19:58.591Z,999.90
2023-02-04T15:23:08.355Z,999.90
2023-02-04T15:26:19.417Z,496.77
2023-02-04T15:29:29.100Z,999.90
2023-02-04T15:32:40.037Z,999.90
2023-02-04T15:35:49.825Z,999.90
2023-02-04T15:38:59.357Z,999.90
2023-02-04T15:42:10.852Z,999.90
2023-02-04T15:45:20.418Z,999.90
2023-02-04T15:48:30.367Z,999.90
2023-02-04T15:51:39.996Z,999.90
2023-02-04T15:54:49.639Z,999.90
2023-02-04T15:58:00.870Z,999.90
2023-02-04T16:01:10.780Z,999.90
2023-02-04T16:04:20.967Z,999.90
2023-02-04T16:07:30.811Z,999.90
2023-02-04T16:10:42.163Z,999.90
2023-02-04T16:13:53.428Z,999.90
2023-02-04T16:17:03.018Z,999.90
2023-02-04T16:20:13.529Z,999.90
2023-02-04T16:23:23.194Z,999.90
2023-02-04T16:26:33.168Z,999.90
2023-02-04T16:29:44.121Z,999.90
2023-02-04T16:32:53.758Z,999.90
2023-02-04T16:36:05.505Z,999.90
2023-02-04T16:39:15.226Z,999.90
2023-02-04T16:42:24.836Z,999.90
2023-02-04T16:45:36.039Z,999.90
2023-02-04T16:48:45.693Z,999.90
2023-02-04T16:51:55.870Z,999.90
2023-02-04T16:55:06.042Z,999.90
2023-02-04T16:58:16.891Z,999.90
2023-02-04T17:01:27.750Z,999.90
2023-02-04T17:04:37.537Z,999.90
2023-02-04T17:07:47.074Z,999.90
2023-02-04T17:11:07.805Z,999.90
2023-02-04T17:14:17.449Z,999.90
2023-02-04T17:17:28.408Z,999.90
2023-02-04T17:20:38.043Z,999.90
2023-02-04T17:23:47.941Z,999.90
2023-02-04T17:26:57.642Z,999.90
2023-02-04T17:30:08.197Z,999.90
2023-02-04T17:33:19.064Z,999.90
2023-02-04T17:36:29.365Z,999.90
2023-02-04T17:39:39.258Z,999.90
2023-02-04T17:42:48.978Z,999.90
2023-02-04T17:45:58.647Z,999.90
2023-02-04T17:49:10.007Z,999.90
2023-02-04T17:52:19.705Z,999.90
2023-02-04T17:55:31.538Z,999.90
2023-02-04T17:58:42.570Z,999.90
2023-02-04T18:01:55.325Z,999.90
2023-02-04T18:05:14.624Z,999.90
2023-02-04T18:08:27.028Z,999.90
2023-02-04T18:11:39.279Z,999.90
2023-02-04T18:14:48.964Z,999.90
2023-02-04T18:18:03.481Z,999.90
2023-02-04T18:21:20.889Z,999.90
2023-02-04T18:24:36.002Z,999.90
2023-02-04T18:27:46.329Z,999.90
2023-02-04T18:31:00.543Z,999.90
2023-02-04T18:34:20.988Z,999.90
2023-02-04T18:37:34.155Z,999.90
2023-02-04T18:40:43.789Z,999.90
2023-02-04T18:44:02.281Z,999.90
2023-02-04T18:47:29.435Z,999.90
2023-02-04T18:50:39.064Z,999.90
2023-02-04T18:53:50.092Z,999.90
2023-02-04T18:57:21.626Z,999.90
2023-02-04T19:00:34.438Z,999.90
2023-02-04T19:03:49.187Z,999.90
2023-02-04T19:06:59.528Z,999.90
2023-02-04T19:10:27.706Z,999.90
2023-02-04T19:13:40.144Z,999.90
2023-02-04T19:16:53.125Z,999.90
2023-02-04T19:20:07.151Z,999.90
2023-02-04T19:23:19.825Z,999.90
2023-02-04T19:26:35.128Z,999.90
2023-02-04T19:29:44.722Z,999.90
2023-02-04T19:32:57.411Z,999.90
2023-02-04T19:36:24.510Z,999.90
2023-02-04T19:39:38.527Z,999.90
2023-02-04T19:42:49.388Z,999.90
2023-02-04T19:45:59.873Z,999.90
2023-02-04T19:49:17.400Z,999.90
2023-02-04T19:52:34.705Z,999.90
2023-02-04T19:55:45.476Z,999.90
2023-02-04T19:58:57.762Z,999.90
2023-02-04T20:02:22.978Z,999.90
2023-02-04T20:05:33.901Z,999.90
2023-02-04T20:08:47.033Z,999.90
2023-02-04T20:11:59.373Z,999.90
2023-02-04T20:15:18.553Z,999.90
2023-02-04T20:18:28.775Z,999.90
2023-02-04T20:21:38.369Z,999.90
2023-02-04T20:24:50.335Z,999.90
2023-02-04T20:28:04.165Z,999.90
2023-02-04T20:31:24.766Z,999.90
2023-02-04T20:34:35.950Z,999.90
2023-02-04T20:37:52.226Z,999.90
2023-02-04T20:41:01.885Z,999.90
2023-02-04T20:44:16.321Z,999.90
2023-02-04T20:47:30.117Z,999.90
2023-02-04T20:50:44.204Z,999.90
2023-02-04T20:53:55.261Z,999.90
2023-02-04T20:57:18.188Z,999.90
2023-02-04T21:00:31.936Z,999.90
2023-02-04T21:03:44.041Z,999.90
2023-02-04T21:06:55.682Z,999.90
2023-02-04T21:10:05.994Z,999.90
2023-02-04T21:13:15.637Z,999.90
2023-02-04T21:16:25.289Z,999.90
2023-02-04T21:19:36.098Z,999.90
2023-02-04T21:22:45.977Z,999.90
2023-02-04T21:25:55.630Z,999.90
2023-02-04T21:29:05.246Z,999.90
2023-02-04T21:32:14.855Z,999.90
2023-02-04T21:35:26.099Z,999.90
2023-02-04T21:38:35.677Z,999.90
2023-02-04T21:41:45.404Z,999.90
2023-02-04T21:44:55.759Z,999.90
2023-02-04T21:48:07.736Z,999.90
2023-02-04T21:51:18.600Z,999.90
2023-02-04T21:54:28.275Z,999.90
2023-02-04T21:57:38.939Z,999.90
2023-02-04T22:00:48.618Z,999.90
2023-02-04T22:04:00.904Z,999.90
2023-02-04T22:07:11.941Z,999.90
2023-02-04T22:10:25.312Z,999.90
2023-02-04T22:13:35.600Z,999.90
2023-02-04T22:16:46.450Z,999.90
2023-02-04T22:19:56.225Z,999.90
2023-02-04T22:23:07.855Z,999.90
2023-02-04T22:26:18.621Z,999.90
2023-02-04T22:29:29.966Z,999.90
2023-02-04T22:32:40.198Z,999.90
2023-02-04T22:35:49.766Z,999.90
2023-02-04T22:39:00.769Z,999.90
2023-02-04T22:42:10.381Z,999.90
2023-02-04T22:45:20.112Z,999.90
2023-02-04T22:48:29.704Z,999.90
2023-02-04T22:51:39.384Z,999.90
2023-02-04T22:54:50.362Z,999.90
2023-02-04T22:58:00.047Z,999.90
2023-02-04T23:01:09.720Z,999.90
2023-02-04T23:04:19.448Z,999.90
2023-02-04T23:07:29.058Z,999.90
2023-02-04T23:10:40.104Z,999.90
2023-02-04T23:13:49.956Z,999.90
2023-02-04T23:17:00.180Z,999.90
2023-02-04T23:20:10.469Z,999.90
2023-02-04T23:23:20.315Z,999.90
2023-02-04T23:26:31.256Z,999.90
2023-02-04T23:29:41.482Z,999.90
2023-02-04T23:32:51.393Z,999.90
2023-02-04T23:36:01.206Z,999.90
2023-02-04T23:39:10.900Z,999.90
2023-02-04T23:42:21.850Z,999.90
2023-02-04T23:45:32.156Z,999.90
2023-02-04T23:48:42.222Z,999.90
2023-02-04T23:51:52.829Z,999.90
2023-02-04T23:55:02.495Z,999.90
2023-02-04T23:58:13.534Z,999.90
